sensor_id;sensor_type;location;lat;lon;timestamp;temperature;humidity
19007;DHT22;9636;47.382;8.480;2023-12-20T00:01:54;5.60;99.90
19007;DHT22;9636;47.382;8.480;2023-12-20T00:04:21;5.80;99.90
19007;DHT22;9636;47.382;8.480;2023-12-20T00:06:48;5.90;99.90
19007;DHT22;9636;47.382;8.480;2023-12-20T00:09:16;5.90;99.90
19007;DHT22;9636;47.382;8.480;2023-12-20T00:11:43;5.90;99.90
19007;DHT22;9636;47.382;8.480;2023-12-20T00:14:09;6.00;99.90
19007;DHT22;9636;47.382;8.480;2023-12-20T00:16:36;6.00;99.90
19007;DHT22;9636;47.382;8.480;2023-12-20T00:19:02;5.80;99.90
19007;DHT22;9636;47.382;8.480;2023-12-20T00:21:29;5.80;99.90
19007;DHT22;9636;47.382;8.480;2023-12-20T00:23:56;5.70;99.90
19007;DHT22;9636;47.382;8.480;2023-12-20T00:26:24;5.60;99.90
19007;DHT22;9636;47.382;8.480;2023-12-20T00:28:50;5.60;99.90
19007;DHT22;9636;47.382;8.480;2023-12-20T00:31:17;5.70;99.90
19007;DHT22;9636;47.382;8.480;2023-12-20T00:33:44;5.70;99.90
19007;DHT22;9636;47.382;8.480;2023-12-20T00:36:12;5.90;99.90
19007;DHT22;9636;47.382;8.480;2023-12-20T00:38:39;5.80;99.90
19007;DHT22;9636;47.382;8.480;2023-12-20T00:41:05;5.80;99.90
19007;DHT22;9636;47.382;8.480;2023-12-20T00:43:33;5.70;99.90
19007;DHT22;9636;47.382;8.480;2023-12-20T00:46:00;5.70;99.90
19007;DHT22;9636;47.382;8.480;2023-12-20T00:48:26;5.70;99.90
19007;DHT22;9636;47.382;8.480;2023-12-20T00:50:55;5.70;99.90
19007;DHT22;9636;47.382;8.480;2023-12-20T00:53:22;5.70;99.90
19007;DHT22;9636;47.382;8.480;2023-12-20T00:55:48;5.80;99.90
19007;DHT22;9636;47.382;8.480;2023-12-20T00:58:15;6.00;99.90
19007;DHT22;9636;47.382;8.480;2023-12-20T01:00:44;6.10;99.90
19007;DHT22;9636;47.382;8.480;2023-12-20T01:03:10;5.90;99.90
19007;DHT22;9636;47.382;8.480;2023-12-20T01:05:37;6.10;99.90
19007;DHT22;9636;47.382;8.480;2023-12-20T01:08:04;6.10;99.90
19007;DHT22;9636;47.382;8.480;2023-12-20T01:10:31;6.10;99.90
19007;DHT22;9636;47.382;8.480;2023-12-20T01:12:57;6.10;99.90
19007;DHT22;9636;47.382;8.480;2023-12-20T01:15:24;6.20;99.90
19007;DHT22;9636;47.382;8.480;2023-12-20T01:17:52;6.30;99.90
19007;DHT22;9636;47.382;8.480;2023-12-20T01:20:18;6.10;99.90
19007;DHT22;9636;47.382;8.480;2023-12-20T01:22:46;6.00;99.90
19007;DHT22;9636;47.382;8.480;2023-12-20T01:25:12;5.90;99.90
19007;DHT22;9636;47.382;8.480;2023-12-20T01:27:39;5.90;99.90
19007;DHT22;9636;47.382;8.480;2023-12-20T01:30:06;6.10;99.90
19007;DHT22;9636;47.382;8.480;2023-12-20T01:32:33;6.10;99.90
19007;DHT22;9636;47.382;8.480;2023-12-20T01:35:01;6.10;99.90
19007;DHT22;9636;47.382;8.480;2023-12-20T01:37:27;6.00;99.90
19007;DHT22;9636;47.382;8.480;2023-12-20T01:39:54;6.10;99.90
19007;DHT22;9636;47.382;8.480;2023-12-20T01:42:21;6.30;99.90
19007;DHT22;9636;47.382;8.480;2023-12-20T01:44:48;6.40;99.90
19007;DHT22;9636;47.382;8.480;2023-12-20T01:49:49;6.40;99.90
19007;DHT22;9636;47.382;8.480;2023-12-20T01:52:17;6.30;99.90
19007;DHT22;9636;47.382;8.480;2023-12-20T01:54:44;6.30;99.90
19007;DHT22;9636;47.382;8.480;2023-12-20T01:57:10;6.10;99.90
19007;DHT22;9636;47.382;8.480;2023-12-20T01:59:38;5.90;99.90
19007;DHT22;9636;47.382;8.480;2023-12-20T02:02:05;6.00;99.90
19007;DHT22;9636;47.382;8.480;2023-12-20T02:04:33;6.00;99.90
19007;DHT22;9636;47.382;8.480;2023-12-20T02:07:00;6.00;99.90
19007;DHT22;9636;47.382;8.480;2023-12-20T02:09:29;6.00;99.90
19007;DHT22;9636;47.382;8.480;2023-12-20T02:11:56;6.10;99.90
19007;DHT22;9636;47.382;8.480;2023-12-20T02:14:22;6.10;99.90
19007;DHT22;9636;47.382;8.480;2023-12-20T02:16:49;6.10;99.90
19007;DHT22;9636;47.382;8.480;2023-12-20T02:19:16;6.00;99.90
19007;DHT22;9636;47.382;8.480;2023-12-20T02:21:45;5.90;99.90
19007;DHT22;9636;47.382;8.480;2023-12-20T02:24:12;6.00;99.90
19007;DHT22;9636;47.382;8.480;2023-12-20T02:26:38;6.00;99.90
19007;DHT22;9636;47.382;8.480;2023-12-20T02:29:05;6.10;99.90
19007;DHT22;9636;47.382;8.480;2023-12-20T02:31:31;6.10;99.90
19007;DHT22;9636;47.382;8.480;2023-12-20T02:33:58;6.20;99.90
19007;DHT22;9636;47.382;8.480;2023-12-20T02:36:25;6.30;99.90
19007;DHT22;9636;47.382;8.480;2023-12-20T02:38:52;6.20;99.90
19007;DHT22;9636;47.382;8.480;2023-12-20T02:41:19;6.10;99.90
19007;DHT22;9636;47.382;8.480;2023-12-20T02:43:46;6.10;99.90
19007;DHT22;9636;47.382;8.480;2023-12-20T02:46:13;5.90;99.90
19007;DHT22;9636;47.382;8.480;2023-12-20T02:48:40;5.70;99.90
19007;DHT22;9636;47.382;8.480;2023-12-20T02:51:06;5.60;99.90
19007;DHT22;9636;47.382;8.480;2023-12-20T02:53:33;5.50;99.90
19007;DHT22;9636;47.382;8.480;2023-12-20T02:56:01;5.60;99.90
19007;DHT22;9636;47.382;8.480;2023-12-20T02:58:28;5.70;99.90
19007;DHT22;9636;47.382;8.480;2023-12-20T03:00:54;5.90;99.90
19007;DHT22;9636;47.382;8.480;2023-12-20T03:03:21;5.90;99.90
19007;DHT22;9636;47.382;8.480;2023-12-20T03:05:48;5.90;99.90
19007;DHT22;9636;47.382;8.480;2023-12-20T03:08:14;5.90;99.90
19007;DHT22;9636;47.382;8.480;2023-12-20T03:10:41;5.80;99.90
19007;DHT22;9636;47.382;8.480;2023-12-20T03:13:09;6.00;99.90
19007;DHT22;9636;47.382;8.480;2023-12-20T03:15:35;6.20;99.90
19007;DHT22;9636;47.382;8.480;2023-12-20T03:18:02;5.90;99.90
19007;DHT22;9636;47.382;8.480;2023-12-20T03:20:29;5.70;99.90
19007;DHT22;9636;47.382;8.480;2023-12-20T03:22:58;5.70;99.90
19007;DHT22;9636;47.382;8.480;2023-12-20T03:25:25;5.60;99.90
19007;DHT22;9636;47.382;8.480;2023-12-20T03:27:51;5.30;99.90
19007;DHT22;9636;47.382;8.480;2023-12-20T03:30:19;5.20;99.90
19007;DHT22;9636;47.382;8.480;2023-12-20T03:32:46;5.00;99.90
19007;DHT22;9636;47.382;8.480;2023-12-20T03:35:13;5.10;99.90
19007;DHT22;9636;47.382;8.480;2023-12-20T03:37:39;5.20;99.90
19007;DHT22;9636;47.382;8.480;2023-12-20T03:40:06;5.30;99.90
19007;DHT22;9636;47.382;8.480;2023-12-20T03:42:33;5.30;99.90
19007;DHT22;9636;47.382;8.480;2023-12-20T03:45:00;5.30;99.90
19007;DHT22;9636;47.382;8.480;2023-12-20T03:47:28;5.50;99.90
19007;DHT22;9636;47.382;8.480;2023-12-20T03:49:54;5.50;99.90
19007;DHT22;9636;47.382;8.480;2023-12-20T03:52:21;5.60;99.90
19007;DHT22;9636;47.382;8.480;2023-12-20T03:54:47;5.70;99.90
19007;DHT22;9636;47.382;8.480;2023-12-20T03:57:14;5.60;99.90
19007;DHT22;9636;47.382;8.480;2023-12-20T03:59:41;5.50;99.90
19007;DHT22;9636;47.382;8.480;2023-12-20T04:02:07;5.40;99.90
19007;DHT22;9636;47.382;8.480;2023-12-20T04:04:35;5.40;99.90
19007;DHT22;9636;47.382;8.480;2023-12-20T04:07:02;5.40;99.90
19007;DHT22;9636;47.382;8.480;2023-12-20T04:09:28;5.30;99.90
19007;DHT22;9636;47.382;8.480;2023-12-20T04:11:55;5.10;99.90
19007;DHT22;9636;47.382;8.480;2023-12-20T04:14:22;5.20;99.90
19007;DHT22;9636;47.382;8.480;2023-12-20T04:16:49;5.10;99.90
19007;DHT22;9636;47.382;8.480;2023-12-20T04:19:16;5.10;99.90
19007;DHT22;9636;47.382;8.480;2023-12-20T04:21:44;5.10;99.90
19007;DHT22;9636;47.382;8.480;2023-12-20T04:24:10;5.20;99.90
19007;DHT22;9636;47.382;8.480;2023-12-20T04:26:37;5.50;99.90
19007;DHT22;9636;47.382;8.480;2023-12-20T04:29:04;5.50;99.90
19007;DHT22;9636;47.382;8.480;2023-12-20T04:31:30;5.50;99.90
19007;DHT22;9636;47.382;8.480;2023-12-20T04:33:57;5.50;99.90
19007;DHT22;9636;47.382;8.480;2023-12-20T04:36:23;5.60;99.90
19007;DHT22;9636;47.382;8.480;2023-12-20T04:38:53;5.60;99.90
19007;DHT22;9636;47.382;8.480;2023-12-20T04:41:20;5.70;99.90
19007;DHT22;9636;47.382;8.480;2023-12-20T04:43:46;5.70;99.90
19007;DHT22;9636;47.382;8.480;2023-12-20T04:46:13;5.70;99.90
19007;DHT22;9636;47.382;8.480;2023-12-20T04:48:39;5.60;99.90
19007;DHT22;9636;47.382;8.480;2023-12-20T04:51:06;5.70;99.90
19007;DHT22;9636;47.382;8.480;2023-12-20T04:53:33;5.70;99.90
19007;DHT22;9636;47.382;8.480;2023-12-20T04:56:01;5.80;99.90
19007;DHT22;9636;47.382;8.480;2023-12-20T04:58:27;5.90;99.90
19007;DHT22;9636;47.382;8.480;2023-12-20T05:00:54;5.80;99.90
19007;DHT22;9636;47.382;8.480;2023-12-20T05:03:20;5.90;99.90
19007;DHT22;9636;47.382;8.480;2023-12-20T05:05:47;5.70;99.90
19007;DHT22;9636;47.382;8.480;2023-12-20T05:08:14;5.70;99.90
19007;DHT22;9636;47.382;8.480;2023-12-20T05:10:40;5.70;99.90
19007;DHT22;9636;47.382;8.480;2023-12-20T05:13:08;5.80;99.90
19007;DHT22;9636;47.382;8.480;2023-12-20T05:15:35;5.90;99.90
19007;DHT22;9636;47.382;8.480;2023-12-20T05:18:02;5.80;99.90
19007;DHT22;9636;47.382;8.480;2023-12-20T05:20:28;5.80;99.90
19007;DHT22;9636;47.382;8.480;2023-12-20T05:22:55;5.90;99.90
19007;DHT22;9636;47.382;8.480;2023-12-20T05:25:21;5.80;99.90
19007;DHT22;9636;47.382;8.480;2023-12-20T05:27:48;5.90;99.90
19007;DHT22;9636;47.382;8.480;2023-12-20T05:30:16;5.90;99.90
19007;DHT22;9636;47.382;8.480;2023-12-20T05:32:43;5.90;99.90
19007;DHT22;9636;47.382;8.480;2023-12-20T05:35:09;5.90;99.90
19007;DHT22;9636;47.382;8.480;2023-12-20T05:37:36;5.80;99.90
19007;DHT22;9636;47.382;8.480;2023-12-20T05:40:03;5.80;99.90
19007;DHT22;9636;47.382;8.480;2023-12-20T05:42:29;5.60;99.90
19007;DHT22;9636;47.382;8.480;2023-12-20T05:44:56;5.70;99.90
19007;DHT22;9636;47.382;8.480;2023-12-20T05:47:24;5.70;99.90
19007;DHT22;9636;47.382;8.480;2023-12-20T05:49:50;5.70;99.90
19007;DHT22;9636;47.382;8.480;2023-12-20T05:52:17;5.90;99.90
19007;DHT22;9636;47.382;8.480;2023-12-20T05:54:44;5.80;99.90
19007;DHT22;9636;47.382;8.480;2023-12-20T05:57:10;5.80;99.90
19007;DHT22;9636;47.382;8.480;2023-12-20T05:59:37;5.80;99.90
19007;DHT22;9636;47.382;8.480;2023-12-20T06:02:04;5.80;99.90
19007;DHT22;9636;47.382;8.480;2023-12-20T06:04:32;5.80;99.90
19007;DHT22;9636;47.382;8.480;2023-12-20T06:06:58;5.80;99.90
19007;DHT22;9636;47.382;8.480;2023-12-20T06:09:26;6.00;99.90
19007;DHT22;9636;47.382;8.480;2023-12-20T06:11:53;6.10;99.90
19007;DHT22;9636;47.382;8.480;2023-12-20T06:14:19;6.20;99.90
19007;DHT22;9636;47.382;8.480;2023-12-20T06:16:46;6.10;99.90
19007;DHT22;9636;47.382;8.480;2023-12-20T06:19:13;5.90;99.90
19007;DHT22;9636;47.382;8.480;2023-12-20T06:21:41;6.00;99.90
19007;DHT22;9636;47.382;8.480;2023-12-20T06:24:07;6.00;99.90
19007;DHT22;9636;47.382;8.480;2023-12-20T06:26:35;6.10;99.90
19007;DHT22;9636;47.382;8.480;2023-12-20T06:29:01;6.20;99.90
19007;DHT22;9636;47.382;8.480;2023-12-20T06:31:28;6.20;99.90
19007;DHT22;9636;47.382;8.480;2023-12-20T06:33:54;6.20;99.90
19007;DHT22;9636;47.382;8.480;2023-12-20T06:36:22;6.10;99.90
19007;DHT22;9636;47.382;8.480;2023-12-20T06:38:51;6.00;99.90
19007;DHT22;9636;47.382;8.480;2023-12-20T06:41:17;6.00;99.90
19007;DHT22;9636;47.382;8.480;2023-12-20T06:43:44;6.10;99.90
19007;DHT22;9636;47.382;8.480;2023-12-20T06:46:10;6.00;99.90
19007;DHT22;9636;47.382;8.480;2023-12-20T06:48:38;6.10;99.90
19007;DHT22;9636;47.382;8.480;2023-12-20T06:51:05;6.10;99.90
19007;DHT22;9636;47.382;8.480;2023-12-20T06:53:32;6.10;99.90
19007;DHT22;9636;47.382;8.480;2023-12-20T06:56:00;6.20;99.90
19007;DHT22;9636;47.382;8.480;2023-12-20T06:58:26;6.30;99.90
19007;DHT22;9636;47.382;8.480;2023-12-20T07:00:53;6.30;99.90
19007;DHT22;9636;47.382;8.480;2023-12-20T07:03:19;6.20;99.90
19007;DHT22;9636;47.382;8.480;2023-12-20T07:05:46;6.20;99.90
19007;DHT22;9636;47.382;8.480;2023-12-20T07:08:13;6.20;99.90
19007;DHT22;9636;47.382;8.480;2023-12-20T07:10:40;6.20;99.90
19007;DHT22;9636;47.382;8.480;2023-12-20T07:13:08;6.10;99.90
19007;DHT22;9636;47.382;8.480;2023-12-20T07:15:35;6.10;99.90
19007;DHT22;9636;47.382;8.480;2023-12-20T07:18:02;6.10;99.90
19007;DHT22;9636;47.382;8.480;2023-12-20T07:20:29;6.10;99.90
19007;DHT22;9636;47.382;8.480;2023-12-20T07:22:55;6.10;99.90
19007;DHT22;9636;47.382;8.480;2023-12-20T07:25:22;6.20;99.90
19007;DHT22;9636;47.382;8.480;2023-12-20T07:27:48;6.10;99.90
19007;DHT22;9636;47.382;8.480;2023-12-20T07:30:16;6.00;99.90
19007;DHT22;9636;47.382;8.480;2023-12-20T07:32:43;6.10;99.90
19007;DHT22;9636;47.382;8.480;2023-12-20T07:35:10;6.20;99.90
19007;DHT22;9636;47.382;8.480;2023-12-20T07:37:36;6.20;99.90
19007;DHT22;9636;47.382;8.480;2023-12-20T07:40:03;6.20;99.90
19007;DHT22;9636;47.382;8.480;2023-12-20T07:42:30;6.20;99.90
19007;DHT22;9636;47.382;8.480;2023-12-20T07:44:56;6.10;99.90
19007;DHT22;9636;47.382;8.480;2023-12-20T07:47:24;6.20;99.90
19007;DHT22;9636;47.382;8.480;2023-12-20T07:49:51;6.10;99.90
19007;DHT22;9636;47.382;8.480;2023-12-20T07:52:18;6.20;99.90
19007;DHT22;9636;47.382;8.480;2023-12-20T07:54:44;6.20;99.90
19007;DHT22;9636;47.382;8.480;2023-12-20T07:57:11;6.20;99.90
19007;DHT22;9636;47.382;8.480;2023-12-20T07:59:38;6.20;99.90
19007;DHT22;9636;47.382;8.480;2023-12-20T08:02:04;6.20;99.90
19007;DHT22;9636;47.382;8.480;2023-12-20T08:04:33;6.20;99.90
19007;DHT22;9636;47.382;8.480;2023-12-20T08:06:59;6.10;99.90
19007;DHT22;9636;47.382;8.480;2023-12-20T08:09:26;6.10;99.90
19007;DHT22;9636;47.382;8.480;2023-12-20T08:11:53;6.10;99.90
19007;DHT22;9636;47.382;8.480;2023-12-20T08:14:19;6.10;99.90
19007;DHT22;9636;47.382;8.480;2023-12-20T08:16:46;6.20;99.90
19007;DHT22;9636;47.382;8.480;2023-12-20T08:19:13;6.20;99.90
19007;DHT22;9636;47.382;8.480;2023-12-20T08:21:41;6.20;99.90
19007;DHT22;9636;47.382;8.480;2023-12-20T08:24:07;6.10;99.90
19007;DHT22;9636;47.382;8.480;2023-12-20T08:26:34;6.10;99.90
19007;DHT22;9636;47.382;8.480;2023-12-20T08:29:01;6.10;99.90
19007;DHT22;9636;47.382;8.480;2023-12-20T08:31:27;6.10;99.90
19007;DHT22;9636;47.382;8.480;2023-12-20T08:33:54;6.10;99.90
19007;DHT22;9636;47.382;8.480;2023-12-20T08:36:21;6.10;99.90
19007;DHT22;9636;47.382;8.480;2023-12-20T08:38:49;6.30;99.90
19007;DHT22;9636;47.382;8.480;2023-12-20T08:41:16;6.30;99.90
19007;DHT22;9636;47.382;8.480;2023-12-20T08:43:42;6.30;99.90
19007;DHT22;9636;47.382;8.480;2023-12-20T08:46:08;6.40;99.90
19007;DHT22;9636;47.382;8.480;2023-12-20T08:48:35;6.40;99.90
19007;DHT22;9636;47.382;8.480;2023-12-20T08:51:02;6.40;99.90
19007;DHT22;9636;47.382;8.480;2023-12-20T08:53:29;6.30;99.90
19007;DHT22;9636;47.382;8.480;2023-12-20T08:55:57;6.20;99.90
19007;DHT22;9636;47.382;8.480;2023-12-20T08:58:26;6.10;99.90
19007;DHT22;9636;47.382;8.480;2023-12-20T09:00:53;6.10;99.90
19007;DHT22;9636;47.382;8.480;2023-12-20T09:03:19;6.10;99.90
19007;DHT22;9636;47.382;8.480;2023-12-20T09:05:46;6.20;99.90
19007;DHT22;9636;47.382;8.480;2023-12-20T09:08:13;6.30;99.90
19007;DHT22;9636;47.382;8.480;2023-12-20T09:10:39;6.30;99.90
19007;DHT22;9636;47.382;8.480;2023-12-20T09:13:07;6.20;99.90
19007;DHT22;9636;47.382;8.480;2023-12-20T09:15:34;6.40;99.90
19007;DHT22;9636;47.382;8.480;2023-12-20T09:18:01;6.40;99.90
19007;DHT22;9636;47.382;8.480;2023-12-20T09:20:27;6.30;99.90
19007;DHT22;9636;47.382;8.480;2023-12-20T09:22:54;6.30;99.90
19007;DHT22;9636;47.382;8.480;2023-12-20T09:25:21;6.40;99.90
19007;DHT22;9636;47.382;8.480;2023-12-20T09:27:48;6.50;99.90
19007;DHT22;9636;47.382;8.480;2023-12-20T09:30:16;6.60;99.90
19007;DHT22;9636;47.382;8.480;2023-12-20T09:32:43;6.70;99.90
19007;DHT22;9636;47.382;8.480;2023-12-20T09:35:08;6.70;99.90
19007;DHT22;9636;47.382;8.480;2023-12-20T09:37:35;6.80;99.90
19007;DHT22;9636;47.382;8.480;2023-12-20T09:40:02;6.70;99.90
19007;DHT22;9636;47.382;8.480;2023-12-20T09:42:29;6.60;99.90
19007;DHT22;9636;47.382;8.480;2023-12-20T09:44:58;6.80;99.90
19007;DHT22;9636;47.382;8.480;2023-12-20T09:47:29;6.70;99.90
19007;DHT22;9636;47.382;8.480;2023-12-20T09:49:56;6.80;99.90
19007;DHT22;9636;47.382;8.480;2023-12-20T09:52:23;6.80;99.90
19007;DHT22;9636;47.382;8.480;2023-12-20T09:54:50;6.90;99.90
19007;DHT22;9636;47.382;8.480;2023-12-20T09:57:18;6.80;99.90
19007;DHT22;9636;47.382;8.480;2023-12-20T09:59:45;6.60;99.90
19007;DHT22;9636;47.382;8.480;2023-12-20T10:02:12;6.50;99.90
19007;DHT22;9636;47.382;8.480;2023-12-20T10:04:41;6.60;99.90
19007;DHT22;9636;47.382;8.480;2023-12-20T10:07:09;6.60;99.90
19007;DHT22;9636;47.382;8.480;2023-12-20T10:09:36;6.70;99.90
19007;DHT22;9636;47.382;8.480;2023-12-20T10:12:03;6.70;99.90
19007;DHT22;9636;47.382;8.480;2023-12-20T10:14:32;6.60;99.90
19007;DHT22;9636;47.382;8.480;2023-12-20T10:17:01;6.50;99.90
19007;DHT22;9636;47.382;8.480;2023-12-20T10:19:28;6.60;99.90
19007;DHT22;9636;47.382;8.480;2023-12-20T10:21:56;6.60;99.90
19007;DHT22;9636;47.382;8.480;2023-12-20T10:24:24;6.70;99.90
19007;DHT22;9636;47.382;8.480;2023-12-20T10:26:57;6.70;99.90
19007;DHT22;9636;47.382;8.480;2023-12-20T10:29:27;6.70;99.90
19007;DHT22;9636;47.382;8.480;2023-12-20T10:31:53;6.70;99.90
19007;DHT22;9636;47.382;8.480;2023-12-20T10:34:22;6.70;99.90
19007;DHT22;9636;47.382;8.480;2023-12-20T10:36:49;6.80;99.90
19007;DHT22;9636;47.382;8.480;2023-12-20T10:39:17;6.80;99.90
19007;DHT22;9636;47.382;8.480;2023-12-20T10:41:45;6.90;99.90
19007;DHT22;9636;47.382;8.480;2023-12-20T10:44:12;6.80;99.90
19007;DHT22;9636;47.382;8.480;2023-12-20T10:46:39;6.90;99.90
19007;DHT22;9636;47.382;8.480;2023-12-20T10:49:06;7.00;99.90
19007;DHT22;9636;47.382;8.480;2023-12-20T10:51:33;7.10;99.90
19007;DHT22;9636;47.382;8.480;2023-12-20T10:54:00;7.20;99.90
19007;DHT22;9636;47.382;8.480;2023-12-20T10:56:29;7.30;99.90
19007;DHT22;9636;47.382;8.480;2023-12-20T10:58:58;7.40;99.90
19007;DHT22;9636;47.382;8.480;2023-12-20T11:01:29;7.40;99.90
19007;DHT22;9636;47.382;8.480;2023-12-20T11:03:57;7.50;99.90
19007;DHT22;9636;47.382;8.480;2023-12-20T11:06:27;7.60;99.90
19007;DHT22;9636;47.382;8.480;2023-12-20T11:09:08;7.40;99.90
19007;DHT22;9636;47.382;8.480;2023-12-20T11:11:42;7.40;99.90
19007;DHT22;9636;47.382;8.480;2023-12-20T11:14:15;7.40;99.90
19007;DHT22;9636;47.382;8.480;2023-12-20T11:16:44;7.50;99.90
19007;DHT22;9636;47.382;8.480;2023-12-20T11:19:11;7.60;99.90
19007;DHT22;9636;47.382;8.480;2023-12-20T11:21:40;7.60;99.90
19007;DHT22;9636;47.382;8.480;2023-12-20T11:24:06;7.70;99.90
19007;DHT22;9636;47.382;8.480;2023-12-20T11:26:33;7.70;99.90
19007;DHT22;9636;47.382;8.480;2023-12-20T11:31:55;7.70;99.90
19007;DHT22;9636;47.382;8.480;2023-12-20T11:34:22;7.70;99.90
19007;DHT22;9636;47.382;8.480;2023-12-20T11:36:48;7.70;99.90
19007;DHT22;9636;47.382;8.480;2023-12-20T11:39:23;7.80;99.90
19007;DHT22;9636;47.382;8.480;2023-12-20T11:41:49;7.80;99.90
19007;DHT22;9636;47.382;8.480;2023-12-20T11:44:17;7.80;99.90
19007;DHT22;9636;47.382;8.480;2023-12-20T11:46:43;7.70;99.90
19007;DHT22;9636;47.382;8.480;2023-12-20T11:49:11;7.80;99.90
19007;DHT22;9636;47.382;8.480;2023-12-20T11:51:40;7.80;99.90
19007;DHT22;9636;47.382;8.480;2023-12-20T11:54:06;7.90;99.90
19007;DHT22;9636;47.382;8.480;2023-12-20T11:56:35;7.70;99.90
19007;DHT22;9636;47.382;8.480;2023-12-20T11:59:02;7.70;99.90
19007;DHT22;9636;47.382;8.480;2023-12-20T12:01:28;7.60;99.90
19007;DHT22;9636;47.382;8.480;2023-12-20T12:04:02;7.40;99.90
19007;DHT22;9636;47.382;8.480;2023-12-20T12:06:30;7.20;99.90
19007;DHT22;9636;47.382;8.480;2023-12-20T12:08:56;7.20;99.90
19007;DHT22;9636;47.382;8.480;2023-12-20T12:11:23;7.30;99.90
19007;DHT22;9636;47.382;8.480;2023-12-20T12:13:50;7.40;99.90
19007;DHT22;9636;47.382;8.480;2023-12-20T12:16:16;7.00;99.90
19007;DHT22;9636;47.382;8.480;2023-12-20T12:18:43;7.00;99.90
19007;DHT22;9636;47.382;8.480;2023-12-20T12:21:10;7.10;99.90
19007;DHT22;9636;47.382;8.480;2023-12-20T12:23:38;7.30;99.90
19007;DHT22;9636;47.382;8.480;2023-12-20T12:26:04;7.30;99.90
19007;DHT22;9636;47.382;8.480;2023-12-20T12:28:31;7.30;99.90
19007;DHT22;9636;47.382;8.480;2023-12-20T12:30:58;7.40;99.90
19007;DHT22;9636;47.382;8.480;2023-12-20T12:33:25;7.20;99.90
19007;DHT22;9636;47.382;8.480;2023-12-20T12:35:52;7.30;99.90
19007;DHT22;9636;47.382;8.480;2023-12-20T12:38:19;7.40;99.90
19007;DHT22;9636;47.382;8.480;2023-12-20T12:40:47;7.60;99.90
19007;DHT22;9636;47.382;8.480;2023-12-20T12:43:15;7.50;99.90
19007;DHT22;9636;47.382;8.480;2023-12-20T12:45:41;7.50;99.90
19007;DHT22;9636;47.382;8.480;2023-12-20T12:48:08;7.50;99.90
19007;DHT22;9636;47.382;8.480;2023-12-20T12:50:35;7.60;99.90
19007;DHT22;9636;47.382;8.480;2023-12-20T12:53:02;7.60;99.90
19007;DHT22;9636;47.382;8.480;2023-12-20T12:55:29;7.60;99.90
19007;DHT22;9636;47.382;8.480;2023-12-20T12:57:57;7.70;99.90
19007;DHT22;9636;47.382;8.480;2023-12-20T13:00:23;7.60;99.90
19007;DHT22;9636;47.382;8.480;2023-12-20T13:02:51;7.60;99.90
19007;DHT22;9636;47.382;8.480;2023-12-20T13:05:18;7.90;99.90
19007;DHT22;9636;47.382;8.480;2023-12-20T13:07:44;7.90;99.90
19007;DHT22;9636;47.382;8.480;2023-12-20T13:10:11;8.00;99.90
19007;DHT22;9636;47.382;8.480;2023-12-20T13:12:37;8.30;99.90
19007;DHT22;9636;47.382;8.480;2023-12-20T13:15:06;8.40;99.90
19007;DHT22;9636;47.382;8.480;2023-12-20T13:17:32;8.20;99.90
19007;DHT22;9636;47.382;8.480;2023-12-20T13:19:59;8.10;99.90
19007;DHT22;9636;47.382;8.480;2023-12-20T13:22:26;7.80;99.90
19007;DHT22;9636;47.382;8.480;2023-12-20T13:24:53;7.50;99.90
19007;DHT22;9636;47.382;8.480;2023-12-20T13:27:20;7.30;99.90
19007;DHT22;9636;47.382;8.480;2023-12-20T13:29:46;7.50;99.90
19007;DHT22;9636;47.382;8.480;2023-12-20T13:32:14;7.60;99.90
19007;DHT22;9636;47.382;8.480;2023-12-20T13:34:41;8.00;99.90
19007;DHT22;9636;47.382;8.480;2023-12-20T13:37:07;8.20;99.90
19007;DHT22;9636;47.382;8.480;2023-12-20T13:39:34;8.50;99.90
19007;DHT22;9636;47.382;8.480;2023-12-20T13:42:01;8.60;99.90
19007;DHT22;9636;47.382;8.480;2023-12-20T13:44:27;9.00;99.90
19007;DHT22;9636;47.382;8.480;2023-12-20T13:46:54;9.10;99.90
19007;DHT22;9636;47.382;8.480;2023-12-20T13:49:22;9.30;99.90
19007;DHT22;9636;47.382;8.480;2023-12-20T13:51:51;8.90;99.90
19007;DHT22;9636;47.382;8.480;2023-12-20T13:54:20;8.30;99.90
19007;DHT22;9636;47.382;8.480;2023-12-20T13:56:47;7.80;99.90
19007;DHT22;9636;47.382;8.480;2023-12-20T13:59:14;7.60;99.90
19007;DHT22;9636;47.382;8.480;2023-12-20T14:01:41;7.90;99.90
19007;DHT22;9636;47.382;8.480;2023-12-20T14:04:08;8.40;99.90
19007;DHT22;9636;47.382;8.480;2023-12-20T14:06:36;8.50;99.90
19007;DHT22;9636;47.382;8.480;2023-12-20T14:09:02;8.40;99.90
19007;DHT22;9636;47.382;8.480;2023-12-20T14:11:29;7.80;99.90
19007;DHT22;9636;47.382;8.480;2023-12-20T14:13:58;7.70;99.90
19007;DHT22;9636;47.382;8.480;2023-12-20T14:16:28;7.50;99.90
19007;DHT22;9636;47.382;8.480;2023-12-20T14:18:55;7.40;99.90
19007;DHT22;9636;47.382;8.480;2023-12-20T14:21:23;7.00;99.90
19007;DHT22;9636;47.382;8.480;2023-12-20T14:23:51;6.90;99.90
19007;DHT22;9636;47.382;8.480;2023-12-20T14:26:18;6.90;99.90
19007;DHT22;9636;47.382;8.480;2023-12-20T14:28:44;6.60;99.90
19007;DHT22;9636;47.382;8.480;2023-12-20T14:31:11;6.40;99.90
19007;DHT22;9636;47.382;8.480;2023-12-20T14:33:37;6.70;99.90
19007;DHT22;9636;47.382;8.480;2023-12-20T14:36:05;6.70;99.90
19007;DHT22;9636;47.382;8.480;2023-12-20T14:38:32;6.70;99.90
19007;DHT22;9636;47.382;8.480;2023-12-20T14:40:59;6.70;99.90
19007;DHT22;9636;47.382;8.480;2023-12-20T14:43:28;6.70;99.90
19007;DHT22;9636;47.382;8.480;2023-12-20T14:45:55;6.50;99.90
19007;DHT22;9636;47.382;8.480;2023-12-20T14:48:21;6.40;99.90
19007;DHT22;9636;47.382;8.480;2023-12-20T14:50:48;6.20;99.90
19007;DHT22;9636;47.382;8.480;2023-12-20T14:53:15;6.30;99.90
19007;DHT22;9636;47.382;8.480;2023-12-20T14:55:44;6.30;99.90
19007;DHT22;9636;47.382;8.480;2023-12-20T14:58:12;6.20;99.90
19007;DHT22;9636;47.382;8.480;2023-12-20T15:00:40;6.20;99.90
19007;DHT22;9636;47.382;8.480;2023-12-20T15:03:08;6.20;99.90
19007;DHT22;9636;47.382;8.480;2023-12-20T15:05:34;6.30;99.90
19007;DHT22;9636;47.382;8.480;2023-12-20T15:08:01;6.30;99.90
19007;DHT22;9636;47.382;8.480;2023-12-20T15:10:27;6.10;99.90
19007;DHT22;9636;47.382;8.480;2023-12-20T15:12:55;6.30;99.90
19007;DHT22;9636;47.382;8.480;2023-12-20T15:15:23;6.30;99.90
19007;DHT22;9636;47.382;8.480;2023-12-20T15:17:50;6.20;99.90
19007;DHT22;9636;47.382;8.480;2023-12-20T15:20:17;6.40;99.90
19007;DHT22;9636;47.382;8.480;2023-12-20T15:22:43;6.30;99.90
19007;DHT22;9636;47.382;8.480;2023-12-20T15:25:11;5.90;99.90
19007;DHT22;9636;47.382;8.480;2023-12-20T15:27:45;5.90;99.90
19007;DHT22;9636;47.382;8.480;2023-12-20T15:30:14;5.80;99.90
19007;DHT22;9636;47.382;8.480;2023-12-20T15:32:42;5.80;99.90
19007;DHT22;9636;47.382;8.480;2023-12-20T15:35:09;5.90;99.90
19007;DHT22;9636;47.382;8.480;2023-12-20T15:37:35;6.10;99.90
19007;DHT22;9636;47.382;8.480;2023-12-20T15:40:04;6.00;99.90
19007;DHT22;9636;47.382;8.480;2023-12-20T15:42:30;5.80;99.90
19007;DHT22;9636;47.382;8.480;2023-12-20T15:44:57;5.50;99.90
19007;DHT22;9636;47.382;8.480;2023-12-20T15:47:24;5.20;99.90
19007;DHT22;9636;47.382;8.480;2023-12-20T15:49:52;5.20;99.90
19007;DHT22;9636;47.382;8.480;2023-12-20T15:52:19;5.00;99.90
19007;DHT22;9636;47.382;8.480;2023-12-20T15:54:45;4.80;99.90
19007;DHT22;9636;47.382;8.480;2023-12-20T15:57:13;4.90;99.90
19007;DHT22;9636;47.382;8.480;2023-12-20T15:59:40;5.00;99.90
19007;DHT22;9636;47.382;8.480;2023-12-20T16:02:07;4.80;99.90
19007;DHT22;9636;47.382;8.480;2023-12-20T16:04:33;4.90;99.90
19007;DHT22;9636;47.382;8.480;2023-12-20T16:07:02;4.70;99.90